Tropical Cyclones
[Index]
Main Index Home Page Stock Weather Photos Extreme Storms Discussion Storm News and Storm Chasing Reports Tropical Cyclones / Hurricanes / Typhoons Weather Data and Links Wild Fires / Bushfires Weather Observation Techniques Weather Picture Catalogue Tornado Pictures and Reports Stock Video Footage and DVDs for sale
Season 2000-2001 Tropical Cyclone SOSE Track Map
Season 2000-2001 Summaries (Operational Data): [AU] [SIO] [SPAC] [SH]
<<- Previous TC | 2000-2001 Season | Next TC ->>

click for intensity scale information  Lat/long Grid: Show Hide

 Date Labels: Show Hide

Operational Tropical Cyclone Data : JTWC Advisories

Name: SOSE
Number: 0119

04 Apr 2001 21:00 UTC to 11 Apr 2001 12:00 UTC

    date/time    lat    long     hPa   cat  kts
2001-04-04 21   13.5   170.0    1000         25          
2001-04-05 00   14.5   167.5    1000         25          
2001-04-05 06   14.5   166.5     999         25          
2001-04-05 12   14.2   165.5     999         25          
2001-04-05 18   14.0   165.8     995    1    35          
2001-04-06 00   14.0   165.2     992    1    40          
2001-04-06 06   14.0   165.2     987    1    45          
2001-04-06 12   14.2   165.0     987    1    45          
2001-04-06 18   14.4   165.5     985    2    50          
2001-04-07 00   14.6   165.7     985    2    50          
2001-04-07 06   15.6   166.3     980    2    55          
2001-04-07 12   16.8   166.7     980    2    55          
2001-04-07 18   17.9   167.2     980    2    55          
2001-04-08 00   18.7   167.9     975    2    60          
2001-04-08 06   19.7   168.1     975    2    60          
2001-04-08 12   20.4   169.3     975    2    60          
2001-04-08 18   20.5   169.5     980    2    55          
2001-04-09 00   21.1   170.5     985    2    50          
2001-04-09 06   21.8   170.5     985    2    50          
2001-04-09 12   22.8   170.5     985    2    50          
2001-04-09 18   23.2   170.1     985    2    50          
2001-04-10 00   23.9   169.9     987    1    45          
2001-04-10 06   24.4   169.7     987    1    45          
2001-04-10 12   25.0   169.6     990    1    40          
2001-04-10 18   25.5   169.7     988    1    45          
2001-04-11 00   26.0   170.0     990    1    45          
2001-04-11 06   26.5   169.5     992    1    45          
2001-04-11 12   26.6   169.4     992    1    35          
Winds are 10-min average.

Tropical cyclone tracks developed by Michael Bath using operational warnings and advisories and Google Maps.


[Australian Severe Weather index] [Copyright Notice] [Email Contacts] [Search This Site] [Privacy Policy]
Document: tropical_cyclone_sose.htm Updated: 28 May 2013